Time;durP1;ratioP1;P1;durP2;ratioP2;P2;SDS_P1;SDS_P2;PMS_P1;PMS_P2;Temp;Humidity;BMP_temperature;BMP_pressure;BME280_temperature;BME280_humidity;BME280_pressure;Samples;Min_cycle;Max_cycle;Signal;HPM_P1;HPM_P2
2021/12/19 00:00:50;;;;;;;22.00;10.15;;;6.90;99.90;;;;;;5073050;28;20032;-78
2021/12/19 00:08:50;;;;;;;22.92;8.60;;;6.80;99.90;;;;;;5092803;28;20035;-78
2021/12/19 00:11:18;;;;;;;25.47;9.80;;;6.90;99.90;;;;;;5091932;28;20020;-78
2021/12/19 00:13:44;;;;;;;28.77;9.55;;;6.90;99.90;;;;;;5093002;28;20016;-78
2021/12/19 00:16:11;;;;;;;26.50;9.10;;;6.90;99.90;;;;;;5092014;28;20024;-79
2021/12/19 00:18:37;;;;;;;28.95;10.38;;;6.80;99.90;;;;;;5093098;28;20099;-78
2021/12/19 00:21:04;;;;;;;26.35;9.02;;;6.80;99.90;;;;;;5091994;28;20095;-79
2021/12/19 00:23:31;;;;;;;31.23;10.38;;;6.80;99.90;;;;;;5075471;28;20027;-78
2021/12/19 00:25:57;;;;;;;26.60;10.13;;;6.80;99.90;;;;;;5072909;28;20116;-78
2021/12/19 00:28:23;;;;;;;36.03;11.43;;;6.90;99.90;;;;;;5072477;28;20060;-78
2021/12/19 00:30:49;;;;;;;48.97;12.57;;;6.90;99.90;;;;;;5072537;28;20029;-78
2021/12/19 00:33:14;;;;;;;43.65;13.15;;;6.80;99.90;;;;;;5072710;28;20029;-78
2021/12/19 00:35:40;;;;;;;42.53;13.00;;;6.80;99.90;;;;;;5071550;28;20122;-79
2021/12/19 00:38:06;;;;;;;70.63;16.30;;;6.80;99.90;;;;;;5072756;28;20031;-78
2021/12/19 00:40:33;;;;;;;70.50;15.73;;;6.80;99.90;;;;;;5072903;28;20020;-78
2021/12/19 00:43:11;;;;;;;59.13;16.58;;;6.70;99.90;;;;;;5071273;28;20020;-78
2021/12/19 00:45:40;;;;;;;47.88;14.63;;;6.70;99.90;;;;;;5072845;28;20066;-78
2021/12/19 00:48:08;;;;;;;68.68;16.05;;;6.80;99.90;;;;;;5072356;28;20366;-79
2021/12/19 00:50:35;;;;;;;86.85;16.83;;;6.80;99.90;;;;;;5072397;28;20493;-79
2021/12/19 00:53:02;;;;;;;98.15;19.52;;;6.80;99.90;;;;;;5072693;28;20108;-79
2021/12/19 00:55:28;;;;;;;81.85;19.65;;;6.80;99.90;;;;;;5072553;28;20462;-78
2021/12/19 00:57:55;;;;;;;89.25;18.67;;;6.80;99.90;;;;;;5072638;28;20032;-78
2021/12/19 01:00:25;;;;;;;86.60;18.65;;;6.80;99.90;;;;;;5074709;28;20050;-79
2021/12/19 01:02:54;;;;;;;67.55;15.88;;;6.90;99.90;;;;;;5092603;28;20031;-78
2021/12/19 01:05:20;;;;;;;62.97;16.52;;;6.80;99.90;;;;;;5092511;28;20020;-78
2021/12/19 01:07:46;;;;;;;62.85;16.50;;;6.80;99.90;;;;;;5093491;28;20060;-78
2021/12/19 01:10:12;;;;;;;67.30;16.52;;;6.90;99.90;;;;;;5096415;28;20137;-78
2021/12/19 01:12:38;;;;;;;58.28;16.67;;;6.90;99.90;;;;;;5096647;28;20028;-78
2021/12/19 01:15:07;;;;;;;69.22;16.13;;;7.00;99.90;;;;;;5096699;28;20020;-78
2021/12/19 01:17:33;;;;;;;51.03;14.75;;;7.00;99.90;;;;;;5096480;28;20495;-78
2021/12/19 01:19:59;;;;;;;66.63;16.33;;;7.20;99.90;;;;;;5091031;28;20036;-78
2021/12/19 01:22:24;;;;;;;53.88;14.20;;;7.10;99.90;;;;;;5075884;28;20032;-78
2021/12/19 01:24:50;;;;;;;78.25;15.07;;;7.20;99.90;;;;;;5075887;28;20443;-78
2021/12/19 01:27:15;;;;;;;57.17;14.57;;;7.00;99.90;;;;;;5076249;28;20095;-78
2021/12/19 01:29:41;;;;;;;52.40;13.48;;;7.00;99.90;;;;;;5075463;28;20039;-78
2021/12/19 01:32:07;;;;;;;61.75;14.38;;;7.10;99.90;;;;;;5075642;28;20063;-78
2021/12/19 01:34:32;;;;;;;55.47;14.77;;;7.10;99.90;;;;;;5075979;28;20031;-78
2021/12/19 01:36:58;;;;;;;58.33;16.00;;;7.10;99.90;;;;;;5076082;28;20029;-78
2021/12/19 01:39:24;;;;;;;81.70;16.42;;;7.10;99.90;;;;;;5074514;28;20127;-79
2021/12/19 01:41:55;;;;;;;93.00;16.90;;;7.00;99.90;;;;;;5075833;28;20032;-79
2021/12/19 01:44:22;;;;;;;82.90;17.77;;;7.10;99.90;;;;;;5075720;28;20032;-78
2021/12/19 01:46:48;;;;;;;81.88;17.60;;;7.10;99.90;;;;;;5075675;28;20028;-79
2021/12/19 01:49:15;;;;;;;86.32;17.45;;;7.10;99.90;;;;;;5075146;28;20386;-78
2021/12/19 01:51:41;;;;;;;80.63;17.52;;;7.10;99.90;;;;;;5075565;28;20017;-79
2021/12/19 01:54:08;;;;;;;77.03;17.05;;;7.20;99.90;;;;;;5075518;28;20086;-78
2021/12/19 01:56:34;;;;;;;88.10;18.45;;;7.20;99.90;;;;;;5073924;28;20020;-78
2021/12/19 01:59:00;;;;;;;96.68;18.35;;;7.20;99.90;;;;;;5075050;28;20043;-78
2021/12/19 02:01:26;;;;;;;82.47;18.70;;;7.20;99.90;;;;;;5074327;28;20066;-78
2021/12/19 02:03:51;;;;;;;72.28;17.75;;;7.30;99.90;;;;;;5075431;28;20029;-78
2021/12/19 02:06:17;;;;;;;160.93;22.92;;;7.10;99.90;;;;;;5075512;28;20025;-78
2021/12/19 02:08:44;;;;;;;96.43;19.35;;;7.10;99.90;;;;;;5075316;28;20116;-78
2021/12/19 02:11:10;;;;;;;105.15;20.02;;;7.20;99.90;;;;;;5075184;28;20078;-78
2021/12/19 02:13:35;;;;;;;139.30;23.63;;;7.10;99.90;;;;;;5075284;28;20025;-79
2021/12/19 02:16:01;;;;;;;132.57;24.15;;;7.10;99.90;;;;;;5075197;28;20311;-79
2021/12/19 02:18:27;;;;;;;140.88;24.10;;;7.10;99.90;;;;;;5074585;28;20056;-78
2021/12/19 02:20:56;;;;;;;188.95;26.17;;;7.10;99.90;;;;;;5074914;28;20071;-78
2021/12/19 02:23:26;;;;;;;125.47;21.83;;;7.00;99.90;;;;;;5075015;28;20052;-78
2021/12/19 02:25:52;;;;;;;101.07;21.17;;;7.00;99.90;;;;;;5074948;28;20071;-78
2021/12/19 02:28:19;;;;;;;81.57;18.73;;;7.10;99.90;;;;;;5074750;28;20036;-78
2021/12/19 02:30:46;;;;;;;59.47;14.73;;;7.20;99.90;;;;;;5075193;28;20037;-79
2021/12/19 02:33:17;;;;;;;46.58;11.98;;;7.20;99.90;;;;;;5074537;28;20025;-79
2021/12/19 02:35:50;;;;;;;34.97;9.35;;;7.20;99.90;;;;;;5074797;28;20104;-79
2021/12/19 02:39:14;;;;;;;38.10;10.55;;;7.30;99.90;;;;;;5074772;28;20021;-79
2021/12/19 02:49:20;;;;;;;38.15;9.45;;;7.20;99.90;;;;;;5080138;28;20067;-79
2021/12/19 02:51:46;;;;;;;36.55;10.18;;;7.20;99.90;;;;;;5095134;28;20103;-79
2021/12/19 02:54:12;;;;;;;44.03;11.40;;;7.20;99.90;;;;;;5094676;28;20063;-79
2021/12/19 02:56:38;;;;;;;44.20;10.75;;;7.10;99.90;;;;;;5094426;28;20051;-78
2021/12/19 02:59:03;;;;;;;38.40;10.38;;;7.30;99.90;;;;;;5094748;28;20032;-78
2021/12/19 03:01:30;;;;;;;38.42;10.30;;;7.30;99.90;;;;;;5094555;28;20418;-78
2021/12/19 03:03:56;;;;;;;45.10;11.70;;;7.40;99.90;;;;;;5094474;28;20031;-79
2021/12/19 03:06:21;;;;;;;38.83;9.80;;;7.30;99.90;;;;;;5094308;28;20028;-78
2021/12/19 03:08:50;;;;;;;33.70;8.73;;;7.30;99.90;;;;;;5094328;28;20028;-78
2021/12/19 03:11:54;;;;;;;46.63;10.18;;;7.40;99.90;;;;;;5094364;28;20130;-78
2021/12/19 03:19:34;;;;;;;57.13;10.70;;;7.30;99.90;;;;;;5092467;28;20063;-78
2021/12/19 03:21:59;;;;;;;39.45;10.13;;;7.20;99.90;;;;;;5072611;28;20056;-78
2021/12/19 03:24:25;;;;;;;50.28;11.43;;;7.30;99.90;;;;;;5072155;28;20476;-78
2021/12/19 03:26:50;;;;;;;52.83;11.23;;;7.30;99.90;;;;;;5072500;28;20063;-78
2021/12/19 03:29:16;;;;;;;57.35;11.75;;;7.20;99.90;;;;;;5072283;28;20082;-79
2021/12/19 03:31:43;;;;;;;67.13;12.85;;;7.20;99.90;;;;;;5071558;28;20025;-79
2021/12/19 03:34:08;;;;;;;61.72;13.25;;;7.20;99.90;;;;;;5072128;28;20327;-79
2021/12/19 03:36:34;;;;;;;46.95;12.15;;;7.20;99.90;;;;;;5072480;28;20231;-79
2021/12/19 03:39:03;;;;;;;55.15;13.70;;;7.30;99.90;;;;;;5072000;28;20462;-79
2021/12/19 03:41:35;;;;;;;53.72;13.50;;;7.30;99.90;;;;;;5072023;28;20052;-79
2021/12/19 03:44:04;;;;;;;60.53;15.18;;;7.30;99.90;;;;;;5072095;28;20099;-79
2021/12/19 03:46:30;;;;;;;79.57;16.10;;;7.30;99.90;;;;;;5072095;28;20051;-79
2021/12/19 03:48:55;;;;;;;90.57;17.08;;;7.30;99.90;;;;;;5071792;28;20028;-78
2021/12/19 03:51:22;;;;;;;69.18;15.32;;;7.30;99.90;;;;;;5071894;28;20028;-79
2021/12/19 03:53:47;;;;;;;84.30;16.77;;;7.40;99.90;;;;;;5071979;28;20534;-78
2021/12/19 03:56:13;;;;;;;84.47;17.30;;;7.40;99.90;;;;;;5071993;28;20103;-79
2021/12/19 03:58:38;;;;;;;73.03;17.10;;;7.30;99.90;;;;;;5070462;28;20047;-78
2021/12/19 04:01:07;;;;;;;90.78;18.45;;;7.20;99.90;;;;;;5070488;28;20036;-79
2021/12/19 04:03:33;;;;;;;120.97;21.40;;;7.20;99.90;;;;;;5087036;28;20044;-79
2021/12/19 04:05:58;;;;;;;96.35;19.80;;;7.20;99.90;;;;;;5091960;28;20066;-79
2021/12/19 04:08:24;;;;;;;110.75;22.02;;;7.30;99.90;;;;;;5092064;28;20469;-78
2021/12/19 04:10:52;;;;;;;70.82;18.75;;;7.20;99.90;;;;;;5092100;28;20620;-79
2021/12/19 04:13:19;;;;;;;131.05;23.13;;;7.20;99.90;;;;;;5093348;28;20031;-78
2021/12/19 04:15:48;;;;;;;131.27;24.10;;;7.20;99.90;;;;;;5093533;28;20101;-79
2021/12/19 04:18:14;;;;;;;88.07;19.88;;;7.20;99.90;;;;;;5093156;28;20047;-79
2021/12/19 04:20:40;;;;;;;100.90;21.55;;;7.20;99.90;;;;;;5093408;28;20055;-79
2021/12/19 04:23:05;;;;;;;93.28;20.45;;;7.20;99.90;;;;;;5092726;28;20056;-79
2021/12/19 04:25:31;;;;;;;82.80;20.90;;;7.30;99.90;;;;;;5092565;28;20028;-79
2021/12/19 04:27:57;;;;;;;100.25;20.02;;;7.20;99.90;;;;;;5092614;28;20039;-79
2021/12/19 04:30:25;;;;;;;59.83;17.60;;;7.30;99.90;;;;;;5092237;28;20020;-79
2021/12/19 04:33:03;;;;;;;81.32;17.20;;;7.30;99.90;;;;;;5092631;28;20023;-79
2021/12/19 04:35:32;;;;;;;63.17;15.48;;;7.30;99.90;;;;;;5092441;28;20013;-79
2021/12/19 05:02:10;;;;;;;37.90;10.38;;;7.40;99.90;;;;;;5096114;28;20031;-79
2021/12/19 05:15:23;;;;;;;28.95;8.05;;;7.60;99.90;;;;;;5096325;28;20551;-78
2021/12/19 05:17:49;;;;;;;26.97;7.27;;;7.70;99.90;;;;;;5096190;28;20097;-79
2021/12/19 05:20:20;;;;;;;25.50;6.82;;;7.60;99.90;;;;;;5088661;28;20068;-79
2021/12/19 05:22:48;;;;;;;21.38;5.35;;;7.50;99.90;;;;;;5076121;28;20023;-78
2021/12/19 05:25:17;;;;;;;12.60;4.53;;;7.70;99.90;;;;;;5075867;28;20538;-78
2021/12/19 05:27:50;;;;;;;11.25;3.60;;;7.70;99.90;;;;;;5076101;28;20489;-78
2021/12/19 05:30:16;;;;;;;9.25;3.53;;;7.70;99.90;;;;;;5076104;28;20489;-78
2021/12/19 05:32:43;;;;;;;8.80;2.72;;;7.80;99.90;;;;;;5074526;28;20024;-79
2021/12/19 05:35:11;;;;;;;8.18;2.78;;;7.70;99.90;;;;;;5076157;28;20101;-79
2021/12/19 05:45:51;;;;;;;8.65;2.58;;;7.70;99.90;;;;;;5075970;28;20119;-79
2021/12/19 05:48:16;;;;;;;11.75;3.00;;;7.70;99.90;;;;;;5075980;28;20461;-79
2021/12/19 05:50:42;;;;;;;11.52;3.40;;;7.70;99.90;;;;;;5092500;28;20031;-79
2021/12/19 05:53:10;;;;;;;10.45;2.95;;;7.70;99.90;;;;;;5095281;28;20481;-79
2021/12/19 05:55:36;;;;;;;8.65;2.55;;;7.70;99.90;;;;;;5095864;28;20035;-79
2021/12/19 05:58:02;;;;;;;9.00;2.80;;;7.70;99.90;;;;;;5095943;28;20024;-79
2021/12/19 06:00:27;;;;;;;10.15;3.40;;;7.70;99.90;;;;;;5095531;28;20039;-79
2021/12/19 06:02:53;;;;;;;10.80;3.50;;;7.70;99.90;;;;;;5094357;28;20028;-79
2021/12/19 06:05:19;;;;;;;8.75;3.03;;;7.70;99.90;;;;;;5095742;28;20031;-79
2021/12/19 06:07:44;;;;;;;12.38;3.20;;;7.70;99.90;;;;;;5095673;28;20447;-79
2021/12/19 06:10:11;;;;;;;8.73;3.00;;;7.60;99.90;;;;;;5095512;28;20052;-79
2021/12/19 06:12:38;;;;;;;7.22;2.28;;;7.70;99.90;;;;;;5096010;28;20454;-78
2021/12/19 06:15:05;;;;;;;12.02;3.22;;;7.60;99.90;;;;;;5095801;28;20013;-79
2021/12/19 06:17:31;;;;;;;8.23;2.65;;;7.60;99.90;;;;;;5095428;28;20464;-79
2021/12/19 06:19:56;;;;;;;5.95;1.90;;;7.60;99.90;;;;;;5090677;28;20111;-79
2021/12/19 06:22:22;;;;;;;6.28;1.70;;;7.50;99.90;;;;;;5075493;28;20094;-78
2021/12/19 06:24:47;;;;;;;5.95;1.88;;;7.50;99.90;;;;;;5075114;28;20525;-79
2021/12/19 06:27:13;;;;;;;7.35;1.60;;;7.50;99.90;;;;;;5074013;28;20028;-78
2021/12/19 06:29:39;;;;;;;5.63;1.40;;;7.40;99.90;;;;;;5075276;28;20024;-78
2021/12/19 06:32:05;;;;;;;7.63;1.60;;;7.40;99.90;;;;;;5075023;28;20199;-79
2021/12/19 06:34:30;;;;;;;6.03;1.48;;;7.40;99.90;;;;;;5074872;28;20024;-80
2021/12/19 06:36:56;;;;;;;5.05;1.15;;;7.30;99.90;;;;;;5074809;28;20031;-80
2021/12/19 06:39:23;;;;;;;6.10;1.45;;;7.30;99.90;;;;;;5074830;28;20050;-80
2021/12/19 06:41:50;;;;;;;6.90;1.38;;;7.30;99.90;;;;;;5074714;28;20032;-80
2021/12/19 06:44:15;;;;;;;4.45;1.42;;;7.30;99.90;;;;;;5074771;28;20488;-80
2021/12/19 06:46:42;;;;;;;6.65;1.83;;;7.20;99.90;;;;;;5074680;28;20017;-80
2021/12/19 06:49:07;;;;;;;14.15;7.28;;;7.20;99.90;;;;;;5078393;28;20028;-80
2021/12/19 06:51:34;;;;;;;31.15;16.80;;;7.20;99.90;;;;;;5094628;28;20455;-80
2021/12/19 06:54:00;;;;;;;38.58;21.40;;;7.30;99.90;;;;;;5094629;28;20030;-79
2021/12/19 06:56:26;;;;;;;70.30;39.53;;;7.30;99.90;;;;;;5094609;28;20082;-80
2021/12/19 06:58:52;;;;;;;17.92;9.38;;;7.30;99.90;;;;;;5094534;28;20028;-80
2021/12/19 07:01:18;;;;;;;8.05;3.30;;;7.20;99.90;;;;;;5094886;28;20024;-80
2021/12/19 07:03:43;;;;;;;11.05;6.90;;;7.20;99.90;;;;;;5094506;28;20099;-80
2021/12/19 07:06:09;;;;;;;13.48;7.82;;;7.20;99.90;;;;;;5094605;28;20025;-80
2021/12/19 07:08:35;;;;;;;20.83;12.45;;;7.10;99.90;;;;;;5094405;28;20036;-80
2021/12/19 07:11:00;;;;;;;25.13;17.60;;;7.20;99.90;;;;;;5094404;28;20046;-80
2021/12/19 07:13:26;;;;;;;7.22;3.08;;;7.20;99.90;;;;;;5094508;28;20396;-80
2021/12/19 07:15:53;;;;;;;13.65;8.63;;;7.20;99.90;;;;;;5094407;28;20028;-80
2021/12/19 07:18:19;;;;;;;13.23;7.13;;;7.20;99.90;;;;;;5094529;28;20519;-80
2021/12/19 07:20:45;;;;;;;5.22;2.28;;;7.30;99.90;;;;;;5082597;28;20115;-80
2021/12/19 07:23:19;;;;;;;8.52;3.92;;;7.20;99.90;;;;;;5074082;28;20020;-80
2021/12/19 07:25:46;;;;;;;7.35;2.40;;;7.20;99.90;;;;;;5073623;28;20024;-80
2021/12/19 07:28:12;;;;;;;6.32;2.70;;;7.30;99.90;;;;;;5073805;28;20020;-80
2021/12/19 07:30:39;;;;;;;6.45;2.83;;;7.20;99.90;;;;;;5073504;28;20032;-80
2021/12/19 07:33:06;;;;;;;9.23;1.92;;;7.20;99.90;;;;;;5073598;28;20028;-80
2021/12/19 07:35:36;;;;;;;10.50;2.70;;;7.30;99.90;;;;;;5073286;28;20020;-76
2021/12/19 07:38:03;;;;;;;10.93;2.17;;;7.30;99.90;;;;;;5073258;28;20024;-81
2021/12/19 07:40:35;;;;;;;3.30;1.58;;;7.20;99.90;;;;;;5073015;28;20382;-80
2021/12/19 07:43:05;;;;;;;6.13;1.50;;;7.30;99.90;;;;;;5107705;28;20354;-80
2021/12/19 07:45:32;;;;;;;5.72;1.75;;;7.40;99.90;;;;;;5113874;27;20092;-80
2021/12/19 07:47:58;;;;;;;7.05;1.75;;;7.40;99.90;;;;;;5113548;28;20035;-80
2021/12/19 07:50:25;;;;;;;4.10;1.60;;;7.40;99.90;;;;;;5097361;28;20065;-80
2021/12/19 07:52:51;;;;;;;8.18;1.83;;;7.30;99.90;;;;;;5113637;28;20019;-80
2021/12/19 07:55:17;;;;;;;8.60;2.35;;;7.20;99.90;;;;;;5113324;27;20050;-80
2021/12/19 07:57:43;;;;;;;7.85;2.42;;;7.20;99.90;;;;;;5113262;28;20415;-80
2021/12/19 08:00:11;;;;;;;6.20;1.85;;;7.30;99.90;;;;;;5112921;28;20040;-80
2021/12/19 08:02:37;;;;;;;5.03;1.65;;;7.20;99.90;;;;;;5113308;28;20410;-80
2021/12/19 08:05:03;;;;;;;5.53;1.63;;;7.20;99.90;;;;;;5107209;28;20066;-79
2021/12/19 08:07:29;;;;;;;7.75;2.35;;;7.20;99.90;;;;;;5112744;28;20034;-78
2021/12/19 08:10:03;;;;;;;4.15;1.83;;;7.20;99.90;;;;;;5111878;28;20043;-79
2021/12/19 08:12:29;;;;;;;4.57;1.77;;;7.20;99.90;;;;;;5104776;28;20034;-79
2021/12/19 08:14:55;;;;;;;3.47;1.45;;;7.20;99.90;;;;;;5112418;28;20030;-78
2021/12/19 08:17:23;;;;;;;3.55;1.73;;;7.20;99.90;;;;;;5112155;28;20087;-79
2021/12/19 08:19:49;;;;;;;7.40;1.90;;;7.10;99.90;;;;;;5110163;28;20032;-79
2021/12/19 08:22:15;;;;;;;5.15;1.77;;;7.10;99.90;;;;;;5112266;28;20036;-79
2021/12/19 08:24:41;;;;;;;4.05;1.63;;;7.00;99.90;;;;;;5112217;28;20034;-78
2021/12/19 08:27:08;;;;;;;3.90;1.52;;;7.10;99.90;;;;;;5112490;28;20076;-78
2021/12/19 08:29:33;;;;;;;4.15;1.73;;;7.00;99.90;;;;;;5111979;28;20100;-79
2021/12/19 08:31:59;;;;;;;15.77;9.10;;;7.00;99.90;;;;;;5110651;28;20381;-78
2021/12/19 08:34:25;;;;;;;9.25;4.35;;;7.00;99.90;;;;;;5112253;28;20019;-78
2021/12/19 08:36:50;;;;;;;45.67;20.98;;;7.00;99.90;;;;;;5112278;28;20087;-78
2021/12/19 08:39:16;;;;;;;305.77;132.70;;;7.00;99.90;;;;;;5112163;28;20020;-79
2021/12/19 08:41:42;;;;;;;37.28;19.58;;;7.10;99.90;;;;;;5112008;28;20054;-78
2021/12/19 08:44:08;;;;;;;10.93;7.30;;;7.10;99.90;;;;;;5111912;28;20019;-79
2021/12/19 08:46:35;;;;;;;12.48;7.10;;;7.20;99.90;;;;;;5112012;28;20102;-78
2021/12/19 08:49:03;;;;;;;15.00;11.13;;;7.20;99.90;;;;;;5110541;28;20487;-79
2021/12/19 08:51:31;;;;;;;9.73;5.78;;;7.30;99.90;;;;;;5112041;28;20106;-79
2021/12/19 08:53:57;;;;;;;4.07;2.85;;;7.40;99.90;;;;;;5112017;28;20030;-79
2021/12/19 08:56:22;;;;;;;7.28;3.50;;;7.40;99.90;;;;;;5105020;28;20111;-79
2021/12/19 08:58:48;;;;;;;7.47;4.95;;;7.50;99.90;;;;;;5111869;28;20087;-79
2021/12/19 09:01:14;;;;;;;5.88;3.63;;;7.50;99.90;;;;;;5111998;28;20045;-79
2021/12/19 09:03:39;;;;;;;6.32;3.80;;;7.40;99.90;;;;;;5111993;28;20458;-79
2021/12/19 09:06:05;;;;;;;5.88;3.20;;;7.40;99.90;;;;;;5111902;28;20023;-79
2021/12/19 09:08:31;;;;;;;7.70;3.10;;;7.40;99.90;;;;;;5112488;28;20438;-78
2021/12/19 09:10:57;;;;;;;4.68;2.10;;;7.50;99.90;;;;;;5111930;28;20032;-77
2021/12/19 09:13:23;;;;;;;7.07;2.60;;;7.50;99.90;;;;;;5112092;28;20062;-78
2021/12/19 09:15:49;;;;;;;9.30;3.03;;;7.50;99.90;;;;;;5112013;28;20031;-79
2021/12/19 09:18:16;;;;;;;8.63;3.03;;;7.50;99.90;;;;;;5110754;28;20026;-79
2021/12/19 09:20:42;;;;;;;7.50;3.03;;;7.50;99.90;;;;;;5097213;28;20028;-82
2021/12/19 09:23:08;;;;;;;11.30;3.20;;;7.60;99.90;;;;;;5073825;28;20047;-83
2021/12/19 09:25:36;;;;;;;8.23;2.97;;;7.60;99.90;;;;;;5074861;28;20024;-82
2021/12/19 09:28:01;;;;;;;9.68;3.47;;;7.60;99.90;;;;;;5080040;28;20038;-82
2021/12/19 09:30:28;;;;;;;6.60;2.75;;;7.60;99.90;;;;;;5116389;28;20027;-82
2021/12/19 09:32:54;;;;;;;9.73;2.67;;;7.70;99.90;;;;;;5116537;28;20038;-82
2021/12/19 09:35:20;;;;;;;4.88;2.28;;;7.60;99.90;;;;;;5116457;28;20024;-82
2021/12/19 09:37:45;;;;;;;5.53;2.55;;;7.80;99.90;;;;;;5116304;28;20054;-82
2021/12/19 09:40:17;;;;;;;6.68;1.95;;;7.70;99.90;;;;;;5116454;28;20063;-82
2021/12/19 09:42:48;;;;;;;7.60;2.75;;;7.80;99.90;;;;;;5116591;28;20381;-82
2021/12/19 09:45:14;;;;;;;4.38;2.10;;;7.70;99.90;;;;;;5116388;27;20023;-82
2021/12/19 09:47:41;;;;;;;5.60;2.70;;;7.70;99.90;;;;;;5114928;28;20528;-81
2021/12/19 09:50:07;;;;;;;11.00;2.97;;;7.80;99.90;;;;;;5108225;28;20020;-82
2021/12/19 09:52:34;;;;;;;7.57;3.15;;;7.80;99.90;;;;;;5116385;28;20052;-83
2021/12/19 09:55:00;;;;;;;9.55;5.10;;;7.70;99.90;;;;;;5116296;28;20012;-82
2021/12/19 09:57:26;;;;;;;25.45;13.88;;;7.80;99.90;;;;;;5116087;28;20148;-82
2021/12/19 09:59:52;;;;;;;11.70;6.65;;;7.80;99.90;;;;;;5115882;28;20027;-81
2021/12/19 10:02:17;;;;;;;9.05;4.72;;;7.70;99.90;;;;;;5115933;28;20534;-82
2021/12/19 10:04:44;;;;;;;15.50;7.07;;;7.70;99.90;;;;;;5109963;28;20099;-82
2021/12/19 10:07:18;;;;;;;9.70;5.40;;;7.60;99.90;;;;;;5097231;28;20498;-81
2021/12/19 10:10:00;;;;;;;10.35;5.13;;;7.70;99.90;;;;;;5089248;28;20383;-82
2021/12/19 10:14:56;;;;;;;14.45;4.78;;;7.80;99.90;;;;;;5075526;28;20375;-82
2021/12/19 10:17:22;;;;;;;18.58;5.95;;;7.80;99.90;;;;;;5074961;28;20078;-80
2021/12/19 10:19:54;;;;;;;16.98;5.63;;;7.80;99.90;;;;;;5075042;28;20020;-81
2021/12/19 10:22:37;;;;;;;12.93;5.03;;;7.80;99.90;;;;;;5074554;28;20033;-80
2021/12/19 10:25:24;;;;;;;10.25;4.65;;;7.70;99.90;;;;;;5074533;28;20060;-78
2021/12/19 10:28:09;;;;;;;14.85;5.80;;;7.90;99.90;;;;;;5114017;28;20024;-79
2021/12/19 10:30:37;;;;;;;16.05;5.65;;;7.80;99.90;;;;;;5089616;28;20039;-79
2021/12/19 10:33:06;;;;;;;14.48;6.15;;;7.90;99.90;;;;;;5111573;28;20047;-79
2021/12/19 10:35:36;;;;;;;15.43;5.03;;;7.90;99.90;;;;;;5113022;28;20034;-79
2021/12/19 10:38:04;;;;;;;24.70;5.97;;;7.80;99.90;;;;;;5114094;28;20402;-79
2021/12/19 10:40:30;;;;;;;21.65;6.45;;;7.90;99.90;;;;;;5113446;28;20077;-79
2021/12/19 10:43:01;;;;;;;16.90;6.80;;;7.90;99.90;;;;;;5113813;28;20461;-79
2021/12/19 10:45:44;;;;;;;20.55;5.80;;;7.90;99.90;;;;;;5112094;28;20015;-79
2021/12/19 10:48:15;;;;;;;15.60;5.90;;;7.90;99.90;;;;;;5113032;28;20020;-79
2021/12/19 10:50:56;;;;;;;19.67;6.28;;;7.90;99.90;;;;;;5107141;27;20462;-79
2021/12/19 10:53:39;;;;;;;19.70;6.88;;;7.90;99.90;;;;;;5113426;28;20015;-79
2021/12/19 10:56:12;;;;;;;16.95;6.57;;;7.80;99.90;;;;;;5105740;28;20070;-79
2021/12/19 10:58:43;;;;;;;;;;;7.80;99.90;;;;;;5113038;28;20034;-80
2021/12/19 11:01:14;;;;;;;29.83;7.10;;;7.90;99.90;;;;;;5114040;28;20014;-79
2021/12/19 11:03:55;;;;;;;21.45;8.82;;;7.90;99.90;;;;;;5113603;28;20076;-79
2021/12/19 11:06:30;;;;;;;19.00;8.38;;;8.00;99.90;;;;;;5107684;28;20088;-79
2021/12/19 11:08:58;;;;;;;37.50;14.93;;;8.00;99.90;;;;;;5113606;28;20044;-79
2021/12/19 11:11:30;;;;;;;25.55;10.23;;;7.90;99.90;;;;;;5113623;28;20073;-80
2021/12/19 11:13:56;;;;;;;32.97;13.10;;;8.00;99.90;;;;;;5112006;28;20024;-79
2021/12/19 11:16:22;;;;;;;36.67;15.88;;;7.90;99.90;;;;;;5113540;28;20020;-79
2021/12/19 11:18:48;;;;;;;23.15;9.35;;;8.00;99.90;;;;;;5113304;28;20445;-79
2021/12/19 11:21:14;;;;;;;31.80;12.25;;;8.00;99.90;;;;;;5111858;28;20090;-79
2021/12/19 11:23:40;;;;;;;17.65;8.73;;;8.00;99.90;;;;;;5114030;28;20032;-79
2021/12/19 11:26:06;;;;;;;23.67;8.38;;;8.00;99.90;;;;;;5113856;28;20030;-80
2021/12/19 11:28:33;;;;;;;19.15;8.77;;;8.00;99.90;;;;;;5112289;28;20064;-82
2021/12/19 11:31:00;;;;;;;15.77;7.32;;;7.90;99.90;;;;;;5112043;28;20031;-79
2021/12/19 11:33:58;;;;;;;21.45;7.65;;;7.90;99.90;;;;;;5112392;28;20034;-80
2021/12/19 11:36:25;;;;;;;18.10;7.45;;;7.90;99.90;;;;;;5112301;28;20077;-80
2021/12/19 11:38:51;;;;;;;20.30;6.60;;;7.90;99.90;;;;;;5103695;28;20032;-80
2021/12/19 11:41:18;;;;;;;22.25;7.47;;;7.90;99.90;;;;;;5088816;28;20041;-80
2021/12/19 11:43:45;;;;;;;17.98;6.90;;;7.90;99.90;;;;;;5091589;28;20028;-80
2021/12/19 11:46:21;;;;;;;21.40;7.20;;;7.90;99.90;;;;;;5092807;28;20032;-80
2021/12/19 11:49:11;;;;;;;15.73;6.18;;;7.90;99.90;;;;;;5092701;28;20059;-80
2021/12/19 11:51:37;;;;;;;14.05;5.43;;;7.90;99.90;;;;;;5092738;28;20470;-81
2021/12/19 11:54:18;;;;;;;12.68;4.75;;;7.90;99.90;;;;;;5093446;28;20035;-80
2021/12/19 11:57:06;;;;;;;15.35;4.68;;;8.00;99.90;;;;;;5093203;28;20477;-81
2021/12/19 11:59:32;;;;;;;15.20;6.03;;;8.10;99.90;;;;;;5093249;28;20415;-80
2021/12/19 12:02:21;;;;;;;11.25;3.88;;;8.10;99.90;;;;;;5092722;28;20055;-80
2021/12/19 12:05:15;;;;;;;10.60;4.15;;;8.10;99.90;;;;;;5078613;28;20370;-80
2021/12/19 12:08:18;;;;;;;12.70;4.20;;;8.10;99.90;;;;;;5069638;28;20449;-79
2021/12/19 12:11:08;;;;;;;9.73;4.60;;;8.10;99.90;;;;;;4958152;28;20059;-79
2021/12/19 12:13:41;;;;;;;12.95;5.18;;;8.10;99.90;;;;;;5006148;28;20054;-79
2021/12/19 12:16:28;;;;;;;10.48;4.10;;;8.20;99.90;;;;;;4989767;28;20388;-79
2021/12/19 12:19:04;;;;;;;12.23;4.63;;;8.10;99.90;;;;;;4973838;28;20039;-81
2021/12/19 12:21:48;;;;;;;15.43;5.90;;;8.10;99.90;;;;;;4973322;28;20039;-81
2021/12/19 12:24:14;;;;;;;14.90;4.75;;;8.10;99.90;;;;;;4969883;28;20018;-79
2021/12/19 12:26:56;;;;;;;10.75;4.95;;;8.10;99.90;;;;;;4970304;28;20633;-80
2021/12/19 12:29:22;;;;;;;18.95;7.82;;;8.20;99.90;;;;;;4970424;28;20026;-79
2021/12/19 12:31:49;;;;;;;17.45;5.95;;;8.20;99.90;;;;;;4983382;28;20035;-80
2021/12/19 12:34:17;;;;;;;12.93;5.85;;;8.20;99.90;;;;;;4986593;28;20026;-79
2021/12/19 12:36:44;;;;;;;17.30;6.78;;;8.10;99.90;;;;;;4970572;28;20187;-78
2021/12/19 12:39:24;;;;;;;21.27;6.07;;;8.10;99.90;;;;;;4974049;28;20032;-80
2021/12/19 12:42:01;;;;;;;19.75;7.60;;;8.10;99.90;;;;;;4989556;28;20065;-78
2021/12/19 12:44:27;;;;;;;66.93;24.35;;;8.20;99.90;;;;;;5027859;28;20473;-78
2021/12/19 12:46:56;;;;;;;21.50;9.15;;;8.10;99.90;;;;;;5088910;28;20056;-78
2021/12/19 12:49:32;;;;;;;15.05;5.88;;;8.10;99.90;;;;;;5080966;28;20466;-79
2021/12/19 12:52:00;;;;;;;15.32;5.60;;;8.10;99.90;;;;;;5033539;28;20029;-77
2021/12/19 12:54:38;;;;;;;23.05;7.60;;;8.30;99.90;;;;;;5051593;28;20025;-78
2021/12/19 12:57:14;;;;;;;16.30;5.65;;;8.20;99.90;;;;;;5051691;28;20021;-77
2021/12/19 12:59:42;;;;;;;19.27;5.60;;;8.30;99.90;;;;;;5051580;28;20017;-78
2021/12/19 13:02:17;;;;;;;16.02;4.78;;;8.10;99.90;;;;;;5051639;28;20025;-77
2021/12/19 13:04:51;;;;;;;11.10;4.22;;;8.20;99.90;;;;;;5037477;28;20083;-77
2021/12/19 13:07:22;;;;;;;16.50;5.05;;;8.20;99.90;;;;;;5055478;28;20395;-77
2021/12/19 13:09:54;;;;;;;19.92;8.68;;;8.20;99.90;;;;;;5063659;28;20090;-77
2021/12/19 13:12:27;;;;;;;16.83;5.72;;;8.20;99.90;;;;;;5075303;28;20382;-78
2021/12/19 13:15:09;;;;;;;17.42;5.07;;;8.10;99.90;;;;;;5075375;28;20120;-77
2021/12/19 13:17:48;;;;;;;13.25;5.38;;;8.00;99.90;;;;;;5075580;28;20078;-77
2021/12/19 13:20:17;;;;;;;11.70;4.03;;;8.10;99.90;;;;;;5082396;28;20116;-77
2021/12/19 13:22:48;;;;;;;15.18;5.10;;;8.10;99.90;;;;;;5077137;28;20039;-78
2021/12/19 13:25:22;;;;;;;16.90;6.45;;;8.10;99.90;;;;;;5095457;28;20351;-77
2021/12/19 13:27:50;;;;;;;22.95;6.55;;;8.10;99.90;;;;;;5060776;28;20062;-78
2021/12/19 13:30:29;;;;;;;17.35;7.32;;;8.00;99.90;;;;;;5095396;28;20024;-77
2021/12/19 13:33:04;;;;;;;15.85;5.57;;;8.10;99.90;;;;;;5095269;28;20107;-77
2021/12/19 13:35:43;;;;;;;10.75;4.63;;;8.10;99.90;;;;;;5095242;28;20028;-78
2021/12/19 13:38:11;;;;;;;17.13;5.85;;;8.00;99.90;;;;;;5095071;28;20445;-77
2021/12/19 13:40:36;;;;;;;17.75;5.00;;;8.00;99.90;;;;;;5094701;28;20028;-82
2021/12/19 13:43:09;;;;;;;17.60;5.93;;;8.00;99.90;;;;;;5077132;28;20035;-80
2021/12/19 13:45:47;;;;;;;;;;;8.10;99.90;;;;;;5095852;28;20085;-80
2021/12/19 13:48:19;;;;;;;19.90;6.72;;;8.10;99.90;;;;;;5085385;28;19958;-79
2021/12/19 13:51:07;;;;;;;15.90;5.70;;;8.20;99.90;;;;;;5077626;28;20064;-80
2021/12/19 13:53:37;;;;;;;21.13;6.18;;;8.20;99.90;;;;;;5107308;28;20090;-79
2021/12/19 13:56:08;;;;;;;15.07;6.72;;;8.20;99.90;;;;;;5094701;28;20016;-80
2021/12/19 13:58:41;;;;;;;21.50;6.30;;;8.20;99.90;;;;;;5091199;28;20535;-79